sensor_id;sensor_type;location;lat;lon;timestamp;P1;durP1;ratioP1;P2;durP2;ratioP2
59571;SDS011;59406;45.602;11.904;2023-02-28T00:00:16;11.68;;;5.35;;
59571;SDS011;59406;45.602;11.904;2023-02-28T00:02:44;11.80;;;5.30;;
59571;SDS011;59406;45.602;11.904;2023-02-28T00:05:11;12.93;;;5.60;;
59571;SDS011;59406;45.602;11.904;2023-02-28T00:07:38;11.02;;;5.40;;
59571;SDS011;59406;45.602;11.904;2023-02-28T00:10:06;10.30;;;4.80;;
59571;SDS011;59406;45.602;11.904;2023-02-28T00:12:33;10.90;;;4.60;;
59571;SDS011;59406;45.602;11.904;2023-02-28T00:15:00;11.23;;;4.95;;
59571;SDS011;59406;45.602;11.904;2023-02-28T00:17:27;14.00;;;5.43;;
59571;SDS011;59406;45.602;11.904;2023-02-28T00:19:53;13.25;;;6.00;;
59571;SDS011;59406;45.602;11.904;2023-02-28T00:22:20;11.75;;;4.88;;
59571;SDS011;59406;45.602;11.904;2023-02-28T00:24:46;9.20;;;5.05;;
59571;SDS011;59406;45.602;11.904;2023-02-28T00:27:12;11.80;;;5.50;;
59571;SDS011;59406;45.602;11.904;2023-02-28T00:29:39;13.18;;;5.75;;
59571;SDS011;59406;45.602;11.904;2023-02-28T00:32:06;11.00;;;5.32;;
59571;SDS011;59406;45.602;11.904;2023-02-28T00:34:32;20.25;;;8.63;;
59571;SDS011;59406;45.602;11.904;2023-02-28T00:37:04;11.85;;;5.53;;
59571;SDS011;59406;45.602;11.904;2023-02-28T00:39:34;13.03;;;4.93;;
59571;SDS011;59406;45.602;11.904;2023-02-28T00:42:01;11.10;;;4.72;;
59571;SDS011;59406;45.602;11.904;2023-02-28T00:44:28;14.00;;;6.50;;
59571;SDS011;59406;45.602;11.904;2023-02-28T00:46:55;10.45;;;5.20;;
59571;SDS011;59406;45.602;11.904;2023-02-28T00:49:21;11.95;;;4.97;;
59571;SDS011;59406;45.602;11.904;2023-02-28T00:51:48;9.23;;;4.00;;
59571;SDS011;59406;45.602;11.904;2023-02-28T00:54:15;8.80;;;3.90;;
59571;SDS011;59406;45.602;11.904;2023-02-28T00:56:43;16.08;;;7.32;;
59571;SDS011;59406;45.602;11.904;2023-02-28T00:59:11;12.52;;;4.38;;
59571;SDS011;59406;45.602;11.904;2023-02-28T01:01:38;13.43;;;5.25;;
59571;SDS011;59406;45.602;11.904;2023-02-28T01:04:04;15.63;;;5.50;;
59571;SDS011;59406;45.602;11.904;2023-02-28T01:06:30;10.13;;;4.50;;
59571;SDS011;59406;45.602;11.904;2023-02-28T01:08:57;10.38;;;4.40;;
59571;SDS011;59406;45.602;11.904;2023-02-28T01:11:24;8.90;;;3.85;;
59571;SDS011;59406;45.602;11.904;2023-02-28T01:13:50;9.05;;;3.53;;
59571;SDS011;59406;45.602;11.904;2023-02-28T01:16:16;7.40;;;3.13;;
59571;SDS011;59406;45.602;11.904;2023-02-28T01:18:43;9.23;;;3.75;;
59571;SDS011;59406;45.602;11.904;2023-02-28T01:21:11;9.77;;;4.00;;
59571;SDS011;59406;45.602;11.904;2023-02-28T01:23:39;8.77;;;3.38;;
59571;SDS011;59406;45.602;11.904;2023-02-28T01:26:06;9.52;;;3.63;;
59571;SDS011;59406;45.602;11.904;2023-02-28T01:28:33;8.67;;;3.73;;
59571;SDS011;59406;45.602;11.904;2023-02-28T01:30:59;7.97;;;3.45;;
59571;SDS011;59406;45.602;11.904;2023-02-28T01:33:26;8.68;;;3.88;;
59571;SDS011;59406;45.602;11.904;2023-02-28T01:36:03;8.85;;;3.67;;
59571;SDS011;59406;45.602;11.904;2023-02-28T01:38:37;8.80;;;3.38;;
59571;SDS011;59406;45.602;11.904;2023-02-28T01:41:03;8.27;;;3.57;;
59571;SDS011;59406;45.602;11.904;2023-02-28T01:43:31;9.40;;;3.63;;
59571;SDS011;59406;45.602;11.904;2023-02-28T01:46:17;9.70;;;3.60;;
59571;SDS011;59406;45.602;11.904;2023-02-28T01:49:05;8.35;;;3.72;;
59571;SDS011;59406;45.602;11.904;2023-02-28T01:51:50;11.07;;;4.60;;
59571;SDS011;59406;45.602;11.904;2023-02-28T01:54:27;6.67;;;3.20;;
59571;SDS011;59406;45.602;11.904;2023-02-28T01:59:48;8.23;;;3.67;;
59571;SDS011;59406;45.602;11.904;2023-02-28T02:02:15;9.15;;;4.43;;
59571;SDS011;59406;45.602;11.904;2023-02-28T02:04:46;9.10;;;4.15;;
59571;SDS011;59406;45.602;11.904;2023-02-28T02:07:18;9.03;;;3.80;;
59571;SDS011;59406;45.602;11.904;2023-02-28T02:09:45;9.60;;;4.13;;
59571;SDS011;59406;45.602;11.904;2023-02-28T02:12:24;11.10;;;3.83;;
59571;SDS011;59406;45.602;11.904;2023-02-28T02:15:02;9.85;;;3.75;;
59571;SDS011;59406;45.602;11.904;2023-02-28T02:17:33;8.40;;;3.30;;
59571;SDS011;59406;45.602;11.904;2023-02-28T02:20:32;7.53;;;3.50;;
59571;SDS011;59406;45.602;11.904;2023-02-28T02:25:56;8.65;;;3.85;;
59571;SDS011;59406;45.602;11.904;2023-02-28T02:28:52;7.90;;;3.63;;
59571;SDS011;59406;45.602;11.904;2023-02-28T02:45:37;6.97;;;3.00;;
59571;SDS011;59406;45.602;11.904;2023-02-28T02:48:09;8.90;;;3.28;;
59571;SDS011;59406;45.602;11.904;2023-02-28T02:50:41;8.40;;;3.80;;
59571;SDS011;59406;45.602;11.904;2023-02-28T02:53:28;7.95;;;3.28;;
59571;SDS011;59406;45.602;11.904;2023-02-28T02:56:03;8.63;;;4.00;;
59571;SDS011;59406;45.602;11.904;2023-02-28T02:58:34;9.00;;;4.00;;
59571;SDS011;59406;45.602;11.904;2023-02-28T03:01:07;9.80;;;4.57;;
59571;SDS011;59406;45.602;11.904;2023-02-28T03:03:35;9.30;;;4.50;;
59571;SDS011;59406;45.602;11.904;2023-02-28T03:06:02;11.23;;;4.43;;
59571;SDS011;59406;45.602;11.904;2023-02-28T03:08:29;8.60;;;4.22;;
59571;SDS011;59406;45.602;11.904;2023-02-28T03:11:03;9.03;;;4.47;;
59571;SDS011;59406;45.602;11.904;2023-02-28T03:19:31;10.95;;;4.00;;
59571;SDS011;59406;45.602;11.904;2023-02-28T03:25:18;10.47;;;4.33;;
59571;SDS011;59406;45.602;11.904;2023-02-28T03:31:16;10.57;;;4.28;;
59571;SDS011;59406;45.602;11.904;2023-02-28T03:34:08;9.07;;;4.38;;
59571;SDS011;59406;45.602;11.904;2023-02-28T03:36:30;8.70;;;3.80;;
59571;SDS011;59406;45.602;11.904;2023-02-28T03:39:05;10.10;;;4.47;;
59571;SDS011;59406;45.602;11.904;2023-02-28T03:41:38;8.90;;;3.78;;
59571;SDS011;59406;45.602;11.904;2023-02-28T03:44:29;10.25;;;4.22;;
59571;SDS011;59406;45.602;11.904;2023-02-28T03:47:21;9.55;;;4.20;;
59571;SDS011;59406;45.602;11.904;2023-02-28T03:50:02;12.20;;;4.50;;
59571;SDS011;59406;45.602;11.904;2023-02-28T03:52:37;9.50;;;3.97;;
59571;SDS011;59406;45.602;11.904;2023-02-28T03:55:08;10.23;;;4.22;;
59571;SDS011;59406;45.602;11.904;2023-02-28T03:57:43;8.85;;;3.80;;
59571;SDS011;59406;45.602;11.904;2023-02-28T04:00:35;8.43;;;3.85;;
59571;SDS011;59406;45.602;11.904;2023-02-28T04:03:04;11.90;;;4.47;;
59571;SDS011;59406;45.602;11.904;2023-02-28T04:05:30;9.63;;;4.03;;
59571;SDS011;59406;45.602;11.904;2023-02-28T04:08:03;8.75;;;4.20;;
59571;SDS011;59406;45.602;11.904;2023-02-28T04:10:31;11.68;;;4.50;;
59571;SDS011;59406;45.602;11.904;2023-02-28T04:12:57;9.83;;;4.17;;
59571;SDS011;59406;45.602;11.904;2023-02-28T04:15:22;9.70;;;3.83;;
59571;SDS011;59406;45.602;11.904;2023-02-28T04:17:49;9.43;;;3.95;;
59571;SDS011;59406;45.602;11.904;2023-02-28T04:20:15;10.15;;;4.30;;
59571;SDS011;59406;45.602;11.904;2023-02-28T04:22:41;10.37;;;4.33;;
59571;SDS011;59406;45.602;11.904;2023-02-28T04:25:07;9.05;;;3.85;;
59571;SDS011;59406;45.602;11.904;2023-02-28T04:27:33;8.55;;;4.07;;
59571;SDS011;59406;45.602;11.904;2023-02-28T04:29:59;9.17;;;4.23;;
59571;SDS011;59406;45.602;11.904;2023-02-28T04:32:25;9.18;;;3.75;;
59571;SDS011;59406;45.602;11.904;2023-02-28T04:34:51;8.85;;;3.65;;
59571;SDS011;59406;45.602;11.904;2023-02-28T04:37:16;11.20;;;4.37;;
59571;SDS011;59406;45.602;11.904;2023-02-28T04:39:42;9.15;;;4.22;;
59571;SDS011;59406;45.602;11.904;2023-02-28T04:42:08;9.67;;;3.87;;
59571;SDS011;59406;45.602;11.904;2023-02-28T04:44:34;9.73;;;3.97;;
59571;SDS011;59406;45.602;11.904;2023-02-28T04:47:00;9.77;;;4.40;;
59571;SDS011;59406;45.602;11.904;2023-02-28T04:49:26;10.50;;;4.70;;
59571;SDS011;59406;45.602;11.904;2023-02-28T04:51:52;10.52;;;3.65;;
59571;SDS011;59406;45.602;11.904;2023-02-28T04:54:18;9.50;;;4.18;;
59571;SDS011;59406;45.602;11.904;2023-02-28T04:56:44;9.40;;;4.30;;
59571;SDS011;59406;45.602;11.904;2023-02-28T04:59:09;8.95;;;4.35;;
59571;SDS011;59406;45.602;11.904;2023-02-28T05:01:35;12.10;;;4.60;;
59571;SDS011;59406;45.602;11.904;2023-02-28T05:04:02;10.65;;;4.93;;
59571;SDS011;59406;45.602;11.904;2023-02-28T05:06:30;10.05;;;4.40;;
59571;SDS011;59406;45.602;11.904;2023-02-28T05:08:58;10.00;;;4.70;;
59571;SDS011;59406;45.602;11.904;2023-02-28T05:11:26;10.35;;;4.55;;
59571;SDS011;59406;45.602;11.904;2023-02-28T05:13:58;9.97;;;4.73;;
59571;SDS011;59406;45.602;11.904;2023-02-28T05:16:24;12.05;;;4.55;;
59571;SDS011;59406;45.602;11.904;2023-02-28T05:18:50;10.25;;;4.05;;
59571;SDS011;59406;45.602;11.904;2023-02-28T05:23:53;10.02;;;3.78;;
59571;SDS011;59406;45.602;11.904;2023-02-28T05:26:20;8.73;;;3.97;;
59571;SDS011;59406;45.602;11.904;2023-02-28T05:28:46;9.63;;;3.97;;
59571;SDS011;59406;45.602;11.904;2023-02-28T05:31:12;10.10;;;4.47;;
59571;SDS011;59406;45.602;11.904;2023-02-28T05:33:38;10.10;;;5.23;;
59571;SDS011;59406;45.602;11.904;2023-02-28T05:36:05;11.27;;;4.45;;
59571;SDS011;59406;45.602;11.904;2023-02-28T05:38:31;9.23;;;4.40;;
59571;SDS011;59406;45.602;11.904;2023-02-28T05:40:57;12.18;;;4.95;;
59571;SDS011;59406;45.602;11.904;2023-02-28T05:43:23;9.80;;;4.60;;
59571;SDS011;59406;45.602;11.904;2023-02-28T05:45:50;9.97;;;4.07;;
59571;SDS011;59406;45.602;11.904;2023-02-28T05:48:16;9.45;;;3.95;;
59571;SDS011;59406;45.602;11.904;2023-02-28T05:50:43;9.82;;;4.00;;
59571;SDS011;59406;45.602;11.904;2023-02-28T05:53:11;10.05;;;4.60;;
59571;SDS011;59406;45.602;11.904;2023-02-28T05:55:37;9.00;;;3.83;;
59571;SDS011;59406;45.602;11.904;2023-02-28T05:58:03;10.95;;;4.65;;
59571;SDS011;59406;45.602;11.904;2023-02-28T06:00:29;10.52;;;4.78;;
59571;SDS011;59406;45.602;11.904;2023-02-28T06:02:55;10.70;;;4.97;;
59571;SDS011;59406;45.602;11.904;2023-02-28T06:05:27;9.73;;;4.77;;
59571;SDS011;59406;45.602;11.904;2023-02-28T06:07:53;10.57;;;4.45;;
59571;SDS011;59406;45.602;11.904;2023-02-28T06:10:19;8.60;;;4.05;;
59571;SDS011;59406;45.602;11.904;2023-02-28T06:12:44;8.63;;;3.78;;
59571;SDS011;59406;45.602;11.904;2023-02-28T06:15:14;8.70;;;3.80;;
59571;SDS011;59406;45.602;11.904;2023-02-28T06:17:42;11.93;;;4.75;;
59571;SDS011;59406;45.602;11.904;2023-02-28T06:20:09;9.80;;;4.43;;
59571;SDS011;59406;45.602;11.904;2023-02-28T06:22:38;9.13;;;4.28;;
59571;SDS011;59406;45.602;11.904;2023-02-28T06:25:04;10.30;;;4.88;;
59571;SDS011;59406;45.602;11.904;2023-02-28T06:27:31;11.37;;;5.13;;
59571;SDS011;59406;45.602;11.904;2023-02-28T06:29:57;10.65;;;5.00;;
59571;SDS011;59406;45.602;11.904;2023-02-28T06:32:23;11.32;;;5.15;;
59571;SDS011;59406;45.602;11.904;2023-02-28T06:34:49;12.18;;;5.65;;
59571;SDS011;59406;45.602;11.904;2023-02-28T06:37:16;10.10;;;4.73;;
59571;SDS011;59406;45.602;11.904;2023-02-28T06:39:42;10.60;;;4.93;;
59571;SDS011;59406;45.602;11.904;2023-02-28T06:42:08;12.80;;;4.78;;
59571;SDS011;59406;45.602;11.904;2023-02-28T06:44:34;10.43;;;4.50;;
59571;SDS011;59406;45.602;11.904;2023-02-28T06:47:04;10.50;;;4.63;;
59571;SDS011;59406;45.602;11.904;2023-02-28T06:49:32;10.48;;;5.22;;
59571;SDS011;59406;45.602;11.904;2023-02-28T06:52:00;10.77;;;5.38;;
59571;SDS011;59406;45.602;11.904;2023-02-28T06:54:25;10.03;;;5.20;;
59571;SDS011;59406;45.602;11.904;2023-02-28T06:56:52;11.82;;;5.40;;
59571;SDS011;59406;45.602;11.904;2023-02-28T06:59:19;12.40;;;5.35;;
59571;SDS011;59406;45.602;11.904;2023-02-28T07:01:45;12.32;;;4.95;;
59571;SDS011;59406;45.602;11.904;2023-02-28T07:04:11;11.57;;;5.40;;
59571;SDS011;59406;45.602;11.904;2023-02-28T07:06:38;12.95;;;6.25;;
59571;SDS011;59406;45.602;11.904;2023-02-28T07:09:04;13.68;;;5.97;;
59571;SDS011;59406;45.602;11.904;2023-02-28T07:11:30;10.80;;;5.22;;
59571;SDS011;59406;45.602;11.904;2023-02-28T07:13:56;13.70;;;6.50;;
59571;SDS011;59406;45.602;11.904;2023-02-28T07:16:23;15.70;;;7.30;;
59571;SDS011;59406;45.602;11.904;2023-02-28T07:18:51;15.45;;;6.40;;
59571;SDS011;59406;45.602;11.904;2023-02-28T07:21:18;16.20;;;6.80;;
59571;SDS011;59406;45.602;11.904;2023-02-28T07:23:44;15.10;;;6.27;;
59571;SDS011;59406;45.602;11.904;2023-02-28T07:28:42;17.48;;;7.80;;
59571;SDS011;59406;45.602;11.904;2023-02-28T07:31:09;13.18;;;5.82;;
59571;SDS011;59406;45.602;11.904;2023-02-28T07:33:36;14.05;;;6.80;;
59571;SDS011;59406;45.602;11.904;2023-02-28T07:36:15;11.67;;;5.40;;
59571;SDS011;59406;45.602;11.904;2023-02-28T07:38:45;12.93;;;5.20;;
59571;SDS011;59406;45.602;11.904;2023-02-28T07:41:15;12.00;;;5.50;;
59571;SDS011;59406;45.602;11.904;2023-02-28T07:43:43;14.55;;;5.97;;
59571;SDS011;59406;45.602;11.904;2023-02-28T07:46:10;13.30;;;5.60;;
59571;SDS011;59406;45.602;11.904;2023-02-28T07:48:40;12.33;;;5.57;;
59571;SDS011;59406;45.602;11.904;2023-02-28T07:51:06;12.57;;;5.45;;
59571;SDS011;59406;45.602;11.904;2023-02-28T07:53:32;12.88;;;5.43;;
59571;SDS011;59406;45.602;11.904;2023-02-28T07:55:58;11.10;;;5.57;;
59571;SDS011;59406;45.602;11.904;2023-02-28T07:58:26;11.03;;;4.97;;
59571;SDS011;59406;45.602;11.904;2023-02-28T08:00:53;12.25;;;5.05;;
59571;SDS011;59406;45.602;11.904;2023-02-28T08:03:19;11.75;;;4.75;;
59571;SDS011;59406;45.602;11.904;2023-02-28T08:05:47;13.88;;;5.18;;
59571;SDS011;59406;45.602;11.904;2023-02-28T08:08:13;11.20;;;5.63;;
59571;SDS011;59406;45.602;11.904;2023-02-28T08:10:39;13.73;;;4.50;;
59571;SDS011;59406;45.602;11.904;2023-02-28T08:13:05;11.35;;;5.00;;
59571;SDS011;59406;45.602;11.904;2023-02-28T08:15:31;10.20;;;4.40;;
59571;SDS011;59406;45.602;11.904;2023-02-28T08:17:57;8.95;;;4.53;;
59571;SDS011;59406;45.602;11.904;2023-02-28T08:20:23;9.93;;;4.80;;
59571;SDS011;59406;45.602;11.904;2023-02-28T08:22:50;11.68;;;5.20;;
59571;SDS011;59406;45.602;11.904;2023-02-28T08:25:16;9.02;;;4.82;;
59571;SDS011;59406;45.602;11.904;2023-02-28T08:27:42;10.83;;;5.37;;
59571;SDS011;59406;45.602;11.904;2023-02-28T08:30:10;11.60;;;5.28;;
59571;SDS011;59406;45.602;11.904;2023-02-28T08:32:37;10.32;;;5.32;;
59571;SDS011;59406;45.602;11.904;2023-02-28T08:35:03;10.93;;;5.15;;
59571;SDS011;59406;45.602;11.904;2023-02-28T08:37:30;9.80;;;4.13;;
59571;SDS011;59406;45.602;11.904;2023-02-28T08:39:56;12.05;;;4.85;;
59571;SDS011;59406;45.602;11.904;2023-02-28T08:42:22;13.45;;;5.03;;
59571;SDS011;59406;45.602;11.904;2023-02-28T08:44:48;10.57;;;5.03;;
59571;SDS011;59406;45.602;11.904;2023-02-28T08:47:14;11.60;;;5.22;;
59571;SDS011;59406;45.602;11.904;2023-02-28T08:49:40;9.82;;;4.85;;
59571;SDS011;59406;45.602;11.904;2023-02-28T08:52:06;9.80;;;4.50;;
59571;SDS011;59406;45.602;11.904;2023-02-28T08:54:32;11.33;;;4.60;;
59571;SDS011;59406;45.602;11.904;2023-02-28T08:56:59;10.35;;;5.28;;
59571;SDS011;59406;45.602;11.904;2023-02-28T08:59:25;10.70;;;4.72;;
59571;SDS011;59406;45.602;11.904;2023-02-28T09:01:51;10.07;;;4.68;;
59571;SDS011;59406;45.602;11.904;2023-02-28T09:04:17;10.17;;;4.73;;
59571;SDS011;59406;45.602;11.904;2023-02-28T09:06:43;9.95;;;5.00;;
59571;SDS011;59406;45.602;11.904;2023-02-28T09:09:10;11.00;;;5.20;;
59571;SDS011;59406;45.602;11.904;2023-02-28T09:11:36;10.57;;;5.20;;
59571;SDS011;59406;45.602;11.904;2023-02-28T09:14:02;8.40;;;4.00;;
59571;SDS011;59406;45.602;11.904;2023-02-28T09:16:28;10.00;;;4.57;;
59571;SDS011;59406;45.602;11.904;2023-02-28T09:18:56;11.38;;;4.55;;
59571;SDS011;59406;45.602;11.904;2023-02-28T09:21:22;9.65;;;4.15;;
59571;SDS011;59406;45.602;11.904;2023-02-28T09:23:49;9.90;;;4.35;;
59571;SDS011;59406;45.602;11.904;2023-02-28T09:28:45;10.77;;;4.77;;
59571;SDS011;59406;45.602;11.904;2023-02-28T09:31:12;9.02;;;4.18;;
59571;SDS011;59406;45.602;11.904;2023-02-28T09:33:40;11.68;;;4.63;;
59571;SDS011;59406;45.602;11.904;2023-02-28T09:36:06;11.07;;;4.72;;
59571;SDS011;59406;45.602;11.904;2023-02-28T09:38:32;11.85;;;4.70;;
59571;SDS011;59406;45.602;11.904;2023-02-28T09:40:59;9.20;;;4.20;;
59571;SDS011;59406;45.602;11.904;2023-02-28T09:43:35;11.75;;;4.00;;
59571;SDS011;59406;45.602;11.904;2023-02-28T09:49:12;9.95;;;4.10;;
59571;SDS011;59406;45.602;11.904;2023-02-28T09:54:11;12.65;;;5.15;;
59571;SDS011;59406;45.602;11.904;2023-02-28T09:56:44;9.55;;;4.53;;
59571;SDS011;59406;45.602;11.904;2023-02-28T10:02:23;11.20;;;4.60;;
59571;SDS011;59406;45.602;11.904;2023-02-28T10:05:00;11.90;;;4.13;;
59571;SDS011;59406;45.602;11.904;2023-02-28T10:10:34;8.50;;;3.75;;
59571;SDS011;59406;45.602;11.904;2023-02-28T10:15:50;8.77;;;4.30;;
59571;SDS011;59406;45.602;11.904;2023-02-28T10:18:23;9.90;;;4.40;;
59571;SDS011;59406;45.602;11.904;2023-02-28T10:20:52;8.82;;;4.10;;
59571;SDS011;59406;45.602;11.904;2023-02-28T10:23:25;9.85;;;4.07;;
59571;SDS011;59406;45.602;11.904;2023-02-28T10:25:55;9.73;;;4.82;;
59571;SDS011;59406;45.602;11.904;2023-02-28T10:28:24;11.80;;;4.25;;
59571;SDS011;59406;45.602;11.904;2023-02-28T10:30:52;9.37;;;4.10;;
59571;SDS011;59406;45.602;11.904;2023-02-28T10:35:59;8.48;;;4.57;;
59571;SDS011;59406;45.602;11.904;2023-02-28T10:38:27;7.70;;;3.95;;
59571;SDS011;59406;45.602;11.904;2023-02-28T10:41:40;8.48;;;3.97;;
59571;SDS011;59406;45.602;11.904;2023-02-28T10:46:47;8.25;;;4.18;;
59571;SDS011;59406;45.602;11.904;2023-02-28T10:49:24;8.10;;;4.00;;
59571;SDS011;59406;45.602;11.904;2023-02-28T10:51:59;9.02;;;4.50;;
59571;SDS011;59406;45.602;11.904;2023-02-28T10:54:30;9.15;;;4.18;;
59571;SDS011;59406;45.602;11.904;2023-02-28T10:59:50;7.95;;;3.95;;
59571;SDS011;59406;45.602;11.904;2023-02-28T11:02:31;9.15;;;4.13;;
59571;SDS011;59406;45.602;11.904;2023-02-28T11:05:13;9.40;;;3.92;;
59571;SDS011;59406;45.602;11.904;2023-02-28T11:10:19;8.43;;;3.37;;
59571;SDS011;59406;45.602;11.904;2023-02-28T11:12:49;8.38;;;4.05;;
59571;SDS011;59406;45.602;11.904;2023-02-28T11:17:54;8.07;;;4.00;;
59571;SDS011;59406;45.602;11.904;2023-02-28T11:20:37;8.80;;;4.47;;
59571;SDS011;59406;45.602;11.904;2023-02-28T11:23:05;8.73;;;4.20;;
59571;SDS011;59406;45.602;11.904;2023-02-28T11:25:38;8.23;;;3.65;;
59571;SDS011;59406;45.602;11.904;2023-02-28T11:28:05;8.25;;;3.63;;
59571;SDS011;59406;45.602;11.904;2023-02-28T11:36:14;8.23;;;4.30;;
59571;SDS011;59406;45.602;11.904;2023-02-28T11:38:47;8.10;;;3.90;;
59571;SDS011;59406;45.602;11.904;2023-02-28T11:44:18;7.57;;;3.50;;
59571;SDS011;59406;45.602;11.904;2023-02-28T11:46:50;7.72;;;3.47;;
59571;SDS011;59406;45.602;11.904;2023-02-28T11:49:37;6.83;;;3.27;;
59571;SDS011;59406;45.602;11.904;2023-02-28T11:52:26;8.68;;;4.03;;
59571;SDS011;59406;45.602;11.904;2023-02-28T11:55:17;7.13;;;3.28;;
59571;SDS011;59406;45.602;11.904;2023-02-28T11:58:09;6.75;;;3.22;;
59571;SDS011;59406;45.602;11.904;2023-02-28T12:25:20;8.50;;;3.63;;
59571;SDS011;59406;45.602;11.904;2023-02-28T12:28:01;9.00;;;4.20;;
59571;SDS011;59406;45.602;11.904;2023-02-28T12:30:29;8.65;;;4.32;;
59571;SDS011;59406;45.602;11.904;2023-02-28T12:33:08;7.43;;;3.65;;
59571;SDS011;59406;45.602;11.904;2023-02-28T12:35:38;8.07;;;3.85;;
59571;SDS011;59406;45.602;11.904;2023-02-28T12:38:14;7.97;;;4.03;;
59571;SDS011;59406;45.602;11.904;2023-02-28T12:40:49;9.03;;;4.07;;
59571;SDS011;59406;45.602;11.904;2023-02-28T12:43:32;7.65;;;3.50;;
59571;SDS011;59406;45.602;11.904;2023-02-28T12:46:09;7.50;;;3.60;;
59571;SDS011;59406;45.602;11.904;2023-02-28T12:48:52;7.05;;;3.60;;
59571;SDS011;59406;45.602;11.904;2023-02-28T12:51:22;7.97;;;3.70;;
59571;SDS011;59406;45.602;11.904;2023-02-28T13:02:39;7.43;;;3.40;;
59571;SDS011;59406;45.602;11.904;2023-02-28T13:11:28;7.72;;;3.97;;
59571;SDS011;59406;45.602;11.904;2023-02-28T13:14:06;8.35;;;4.10;;
59571;SDS011;59406;45.602;11.904;2023-02-28T13:16:53;8.45;;;4.05;;
59571;SDS011;59406;45.602;11.904;2023-02-28T13:19:22;8.57;;;3.95;;
59571;SDS011;59406;45.602;11.904;2023-02-28T13:21:59;8.47;;;4.07;;
59571;SDS011;59406;45.602;11.904;2023-02-28T13:24:38;8.23;;;3.60;;
59571;SDS011;59406;45.602;11.904;2023-02-28T13:27:32;7.40;;;4.05;;
59571;SDS011;59406;45.602;11.904;2023-02-28T13:30:49;8.50;;;3.72;;
59571;SDS011;59406;45.602;11.904;2023-02-28T13:33:22;8.50;;;4.10;;
59571;SDS011;59406;45.602;11.904;2023-02-28T13:36:00;8.17;;;4.07;;
59571;SDS011;59406;45.602;11.904;2023-02-28T13:38:36;7.68;;;3.80;;
59571;SDS011;59406;45.602;11.904;2023-02-28T13:55:12;7.00;;;3.83;;
59571;SDS011;59406;45.602;11.904;2023-02-28T13:58:07;9.15;;;3.70;;
59571;SDS011;59406;45.602;11.904;2023-02-28T14:11:44;8.32;;;4.07;;
59571;SDS011;59406;45.602;11.904;2023-02-28T14:17:02;8.13;;;3.97;;
59571;SDS011;59406;45.602;11.904;2023-02-28T14:19:30;9.13;;;4.40;;
59571;SDS011;59406;45.602;11.904;2023-02-28T14:22:09;7.68;;;3.90;;
59571;SDS011;59406;45.602;11.904;2023-02-28T14:28:12;8.20;;;3.67;;
59571;SDS011;59406;45.602;11.904;2023-02-28T14:33:44;9.07;;;3.95;;
59571;SDS011;59406;45.602;11.904;2023-02-28T14:36:26;9.48;;;4.53;;
59571;SDS011;59406;45.602;11.904;2023-02-28T14:38:57;7.95;;;4.07;;
59571;SDS011;59406;45.602;11.904;2023-02-28T14:41:31;8.20;;;4.07;;
59571;SDS011;59406;45.602;11.904;2023-02-28T14:44:03;8.52;;;4.38;;
59571;SDS011;59406;45.602;11.904;2023-02-28T14:46:52;8.35;;;3.75;;
59571;SDS011;59406;45.602;11.904;2023-02-28T14:49:34;7.25;;;3.22;;
59571;SDS011;59406;45.602;11.904;2023-02-28T14:54:37;7.40;;;3.67;;
59571;SDS011;59406;45.602;11.904;2023-02-28T14:57:05;8.27;;;4.10;;
59571;SDS011;59406;45.602;11.904;2023-02-28T14:59:32;9.38;;;3.97;;
59571;SDS011;59406;45.602;11.904;2023-02-28T15:07:44;7.73;;;3.87;;
59571;SDS011;59406;45.602;11.904;2023-02-28T15:10:21;9.00;;;3.78;;
59571;SDS011;59406;45.602;11.904;2023-02-28T15:12:54;8.35;;;3.80;;
59571;SDS011;59406;45.602;11.904;2023-02-28T15:15:29;8.43;;;4.00;;
59571;SDS011;59406;45.602;11.904;2023-02-28T15:18:06;7.25;;;3.50;;
59571;SDS011;59406;45.602;11.904;2023-02-28T15:20:39;9.43;;;3.83;;
59571;SDS011;59406;45.602;11.904;2023-02-28T15:23:07;8.43;;;3.55;;
59571;SDS011;59406;45.602;11.904;2023-02-28T15:25:34;7.10;;;3.47;;
59571;SDS011;59406;45.602;11.904;2023-02-28T15:28:00;8.27;;;3.88;;
59571;SDS011;59406;45.602;11.904;2023-02-28T15:30:28;8.32;;;3.88;;
59571;SDS011;59406;45.602;11.904;2023-02-28T15:33:03;8.73;;;3.70;;
59571;SDS011;59406;45.602;11.904;2023-02-28T15:35:44;8.15;;;3.55;;
59571;SDS011;59406;45.602;11.904;2023-02-28T15:38:18;8.07;;;3.70;;
59571;SDS011;59406;45.602;11.904;2023-02-28T15:40:55;8.23;;;3.60;;
59571;SDS011;59406;45.602;11.904;2023-02-28T15:43:27;8.32;;;3.38;;
59571;SDS011;59406;45.602;11.904;2023-02-28T15:45:59;11.70;;;5.43;;
59571;SDS011;59406;45.602;11.904;2023-02-28T15:48:44;12.82;;;4.60;;
59571;SDS011;59406;45.602;11.904;2023-02-28T15:51:20;14.80;;;4.78;;
59571;SDS011;59406;45.602;11.904;2023-02-28T15:53:58;9.90;;;4.00;;
59571;SDS011;59406;45.602;11.904;2023-02-28T15:56:33;10.70;;;4.57;;
59571;SDS011;59406;45.602;11.904;2023-02-28T15:59:07;10.47;;;4.73;;
59571;SDS011;59406;45.602;11.904;2023-02-28T16:02:11;11.10;;;4.18;;
59571;SDS011;59406;45.602;11.904;2023-02-28T16:04:54;10.95;;;4.15;;
59571;SDS011;59406;45.602;11.904;2023-02-28T16:07:23;10.93;;;4.88;;
59571;SDS011;59406;45.602;11.904;2023-02-28T16:09:50;12.70;;;4.88;;
59571;SDS011;59406;45.602;11.904;2023-02-28T16:12:16;12.43;;;4.73;;
59571;SDS011;59406;45.602;11.904;2023-02-28T16:14:43;10.65;;;4.68;;
59571;SDS011;59406;45.602;11.904;2023-02-28T16:17:20;9.48;;;4.57;;
59571;SDS011;59406;45.602;11.904;2023-02-28T16:19:49;12.98;;;4.25;;
59571;SDS011;59406;45.602;11.904;2023-02-28T16:22:15;11.27;;;4.78;;
59571;SDS011;59406;45.602;11.904;2023-02-28T16:24:41;10.70;;;4.40;;
59571;SDS011;59406;45.602;11.904;2023-02-28T16:27:11;10.50;;;4.35;;
59571;SDS011;59406;45.602;11.904;2023-02-28T16:29:43;11.73;;;4.35;;
59571;SDS011;59406;45.602;11.904;2023-02-28T16:32:10;13.40;;;5.03;;
59571;SDS011;59406;45.602;11.904;2023-02-28T16:34:40;15.55;;;5.00;;
59571;SDS011;59406;45.602;11.904;2023-02-28T16:37:11;12.03;;;4.70;;
59571;SDS011;59406;45.602;11.904;2023-02-28T16:39:39;10.13;;;5.38;;
59571;SDS011;59406;45.602;11.904;2023-02-28T16:42:05;12.48;;;5.03;;
59571;SDS011;59406;45.602;11.904;2023-02-28T16:44:33;14.68;;;5.65;;
59571;SDS011;59406;45.602;11.904;2023-02-28T16:47:00;13.57;;;5.55;;
59571;SDS011;59406;45.602;11.904;2023-02-28T16:49:27;13.33;;;4.70;;
59571;SDS011;59406;45.602;11.904;2023-02-28T16:51:54;12.35;;;5.45;;
59571;SDS011;59406;45.602;11.904;2023-02-28T16:54:20;11.82;;;5.20;;
59571;SDS011;59406;45.602;11.904;2023-02-28T16:56:47;13.80;;;5.60;;
59571;SDS011;59406;45.602;11.904;2023-02-28T16:59:15;13.27;;;5.30;;
59571;SDS011;59406;45.602;11.904;2023-02-28T17:01:44;11.95;;;5.03;;
59571;SDS011;59406;45.602;11.904;2023-02-28T17:04:11;14.25;;;5.88;;
59571;SDS011;59406;45.602;11.904;2023-02-28T17:06:37;12.90;;;5.40;;
59571;SDS011;59406;45.602;11.904;2023-02-28T17:09:03;10.57;;;4.60;;
59571;SDS011;59406;45.602;11.904;2023-02-28T17:11:29;11.30;;;5.35;;
59571;SDS011;59406;45.602;11.904;2023-02-28T17:13:55;12.82;;;5.45;;
59571;SDS011;59406;45.602;11.904;2023-02-28T17:16:31;17.40;;;6.38;;
59571;SDS011;59406;45.602;11.904;2023-02-28T17:19:01;13.80;;;5.85;;
59571;SDS011;59406;45.602;11.904;2023-02-28T17:21:29;15.43;;;5.90;;
59571;SDS011;59406;45.602;11.904;2023-02-28T17:23:55;12.32;;;5.22;;
59571;SDS011;59406;45.602;11.904;2023-02-28T17:26:21;11.10;;;5.10;;